Time;durP1;ratioP1;P1;durP2;ratioP2;P2;SDS_P1;SDS_P2;PMS_P1;PMS_P2;Temp;Humidity;BMP_temperature;BMP_pressure;BME280_temperature;BME280_humidity;BME280_pressure;Samples;Min_cycle;Max_cycle;Signal;HPM_P1;HPM_P2
2023/10/03 00:01:10;;;;;;;3.87;3.47;;;;;;;-146.25;100.00;57403.91;4956343;29;20202;-89
2023/10/03 00:03:39;;;;;;;3.43;3.00;;;;;;;-146.25;100.00;57403.91;4960246;28;20249;-90
2023/10/03 00:06:07;;;;;;;2.73;2.50;;;;;;;-146.25;100.00;57403.91;4976945;28;20221;-89
2023/10/03 00:08:38;;;;;;;3.23;2.93;;;;;;;-146.25;100.00;57403.91;4975729;28;20215;-88
2023/10/03 00:11:08;;;;;;;5.43;2.80;;;;;;;-146.25;100.00;57403.91;4971408;28;20194;-89
2023/10/03 00:13:35;;;;;;;5.50;3.10;;;;;;;-146.25;100.00;57403.91;4966731;29;20284;-90
2023/10/03 00:16:04;;;;;;;5.93;2.60;;;;;;;-146.25;100.00;57403.91;4966475;28;20224;-89
2023/10/03 00:18:34;;;;;;;5.13;3.23;;;;;;;-146.25;100.00;57403.91;4957965;29;20213;-88
2023/10/03 00:21:03;;;;;;;4.67;3.10;;;;;;;-146.25;100.00;57403.91;4955608;29;20281;-88
2023/10/03 00:23:32;;;;;;;4.27;3.27;;;;;;;-146.25;100.00;57403.91;4954084;29;20679;-89
2023/10/03 00:26:00;;;;;;;3.20;2.73;;;;;;;-146.25;100.00;57403.91;4954962;29;20207;-89
2023/10/03 00:28:29;;;;;;;5.03;2.80;;;;;;;-146.25;100.00;57403.91;4954328;28;20329;-89
2023/10/03 00:31:01;;;;;;;6.63;3.63;;;;;;;-146.25;100.00;57403.91;4954740;29;20261;-88
2023/10/03 00:33:30;;;;;;;4.47;2.80;;;;;;;-146.25;100.00;57403.91;4952257;29;20538;-89
2023/10/03 00:36:00;;;;;;;3.00;2.80;;;;;;;-146.25;100.00;57403.91;4953930;29;20212;-89
2023/10/03 00:38:27;;;;;;;4.20;3.17;;;;;;;-146.25;100.00;57403.91;4954045;29;20292;-90
2023/10/03 00:40:55;;;;;;;5.50;2.53;;;;;;;-146.25;100.00;57403.91;4952954;28;20309;-90
2023/10/03 00:43:24;;;;;;;3.30;2.67;;;;;;;-146.25;100.00;57403.91;4954314;29;20273;-89
2023/10/03 00:45:52;;;;;;;3.90;3.50;;;;;;;-146.25;100.00;57403.91;4954605;29;20230;-89
2023/10/03 00:48:21;;;;;;;3.37;2.80;;;;;;;-146.25;100.00;57403.91;4954197;29;20337;-91
2023/10/03 00:50:53;;;;;;;5.33;3.00;;;;;;;-146.25;100.00;57403.91;4954829;29;20684;-89
2023/10/03 00:53:22;;;;;;;5.40;3.07;;;;;;;-146.25;100.00;57403.91;4954158;29;20240;-88
2023/10/03 00:55:56;;;;;;;6.83;3.53;;;;;;;-146.25;100.00;57403.91;4954692;29;20269;-90
2023/10/03 00:58:28;;;;;;;4.63;3.27;;;;;;;-146.25;100.00;57403.91;4957004;29;20261;-90
2023/10/03 01:00:57;;;;;;;3.07;2.87;;;;;;;-146.25;100.00;57403.91;4969633;29;20664;-90
2023/10/03 01:03:36;;;;;;;3.70;3.50;;;;;;;-146.25;100.00;57403.91;4970637;28;20242;-87
2023/10/03 01:06:08;;;;;;;3.70;2.47;;;;;;;-146.25;100.00;57403.91;4955667;29;20683;-89
2023/10/03 01:08:42;;;;;;;3.90;2.90;;;;;;;-146.25;100.00;57403.91;4955197;29;20230;-89
2023/10/03 01:11:15;;;;;;;2.47;2.27;;;;;;;-146.25;100.00;57403.91;4957218;28;20191;-89
2023/10/03 01:13:47;;;;;;;3.77;2.90;;;;;;;-146.25;100.00;57403.91;4958717;29;20202;-87
2023/10/03 01:16:20;;;;;;;3.50;2.33;;;;;;;-146.25;100.00;57403.91;4961600;28;20226;-86
2023/10/03 01:18:52;;;;;;;5.17;3.27;;;;;;;-146.25;100.00;57403.91;4964333;29;20213;-86
2023/10/03 01:21:21;;;;;;;2.97;2.43;;;;;;;-146.25;100.00;57403.91;4965176;29;20242;-86
2023/10/03 01:23:50;;;;;;;4.43;2.87;;;;;;;-146.25;100.00;57403.91;4967452;29;20218;-86
2023/10/03 01:26:20;;;;;;;3.33;3.00;;;;;;;-146.25;100.00;57403.91;4965654;29;20209;-86
2023/10/03 01:28:49;;;;;;;3.70;2.43;;;;;;;-146.25;100.00;57403.91;4964455;29;20246;-86
2023/10/03 01:31:17;;;;;;;4.53;3.03;;;;;;;-146.25;100.00;57403.91;4967179;29;20231;-86
2023/10/03 01:33:46;;;;;;;5.30;2.63;;;;;;;-146.25;100.00;57403.91;4974517;29;20235;-89
2023/10/03 01:36:14;;;;;;;6.67;3.60;;;;;;;-146.25;100.00;57403.91;4969780;29;20209;-88
2023/10/03 01:38:42;;;;;;;5.70;2.80;;;;;;;-146.25;100.00;57403.91;4959260;29;20682;-89
2023/10/03 01:41:12;;;;;;;13.03;3.20;;;;;;;-146.25;100.00;57403.91;4957149;29;20710;-89
2023/10/03 01:43:43;;;;;;;9.30;3.27;;;;;;;-146.25;100.00;57403.91;4957182;29;20543;-90
2023/10/03 01:46:12;;;;;;;3.07;2.77;;;;;;;-146.25;100.00;57403.91;4957119;29;20207;-88
2023/10/03 01:48:41;;;;;;;4.80;2.90;;;;;;;-146.25;100.00;57403.91;4956794;29;20317;-89
2023/10/03 01:51:09;;;;;;;6.67;2.33;;;;;;;-146.25;100.00;57403.91;4956801;29;20217;-90
2023/10/03 01:53:39;;;;;;;4.30;2.77;;;;;;;-146.25;100.00;57403.91;4957011;29;20207;-90
2023/10/03 01:56:06;;;;;;;3.83;2.20;;;;;;;-146.25;100.00;57403.91;4957070;29;20278;-88
2023/10/03 01:58:35;;;;;;;23.13;8.77;;;;;;;-146.25;100.00;57403.91;4956675;29;20207;-89
2023/10/03 02:01:04;;;;;;;5.47;2.77;;;;;;;-146.25;100.00;57403.91;4957432;29;20576;-90
2023/10/03 02:03:33;;;;;;;5.20;2.63;;;;;;;-146.25;100.00;57403.91;4956650;29;20238;-89
2023/10/03 02:06:01;;;;;;;4.57;2.90;;;;;;;-146.25;100.00;57403.91;4957509;29;20222;-90
2023/10/03 02:08:29;;;;;;;4.47;2.13;;;;;;;-146.25;100.00;57403.91;4957080;29;20254;-90
2023/10/03 02:10:57;;;;;;;2.67;2.57;;;;;;;-146.25;100.00;57403.91;4956842;29;20199;-91
2023/10/03 02:13:28;;;;;;;4.13;2.70;;;;;;;-146.25;100.00;57403.91;4957279;29;20253;-90
2023/10/03 02:15:58;;;;;;;2.63;2.40;;;;;;;-146.25;100.00;57403.91;4956818;28;20341;-90
2023/10/03 02:18:26;;;;;;;2.77;2.30;;;;;;;-146.25;100.00;57403.91;4957332;29;20274;-90
2023/10/03 02:21:01;;;;;;;3.33;2.20;;;;;;;-146.25;100.00;57403.91;4957000;29;20592;-88
2023/10/03 02:23:31;;;;;;;3.23;2.63;;;;;;;-146.25;100.00;57403.91;4955563;28;20202;-89
2023/10/03 02:26:07;;;;;;;3.57;2.53;;;;;;;-146.25;100.00;57403.91;4956007;29;20218;-89
2023/10/03 02:28:36;;;;;;;2.87;2.67;;;;;;;-146.25;100.00;57403.91;4957502;29;20245;-91
2023/10/03 02:31:07;;;;;;;4.10;2.20;;;;;;;-146.25;100.00;57403.91;4956779;29;20286;-89
2023/10/03 02:33:37;;;;;;;3.97;2.80;;;;;;;-146.25;100.00;57403.91;4959824;29;20202;-89
2023/10/03 02:36:09;;;;;;;4.93;2.70;;;;;;;-146.25;100.00;57403.91;4960970;29;20202;-89
2023/10/03 02:38:38;;;;;;;1.80;1.70;;;;;;;-146.25;100.00;57403.91;4962083;29;20265;-91
2023/10/03 02:41:12;;;;;;;3.30;2.93;;;;;;;-146.25;100.00;57403.91;4962401;29;20218;-90
2023/10/03 02:43:46;;;;;;;3.23;2.77;;;;;;;-146.25;100.00;57403.91;4961477;29;20354;-90
2023/10/03 02:46:19;;;;;;;5.17;1.83;;;;;;;-146.25;100.00;57403.91;4961531;29;20205;-89
2023/10/03 02:48:49;;;;;;;12.20;2.27;;;;;;;-146.25;100.00;57403.91;4961776;29;20231;-89
2023/10/03 02:51:17;;;;;;;4.13;2.23;;;;;;;-146.25;100.00;57403.91;4960553;29;20580;-89
2023/10/03 02:53:48;;;;;;;4.03;2.00;;;;;;;-146.25;100.00;57403.91;4961332;29;20210;-90
2023/10/03 02:56:16;;;;;;;3.47;3.17;;;;;;;-146.25;100.00;57403.91;4958248;29;20203;-90
2023/10/03 02:58:46;;;;;;;4.90;3.17;;;;;;;-146.25;100.00;57403.91;4957103;29;20286;-89
2023/10/03 03:01:17;;;;;;;6.00;2.67;;;;;;;-146.25;100.00;57403.91;4956895;29;20199;-90
2023/10/03 03:03:48;;;;;;;2.57;2.37;;;;;;;-146.25;100.00;57403.91;4955941;28;20298;-89
2023/10/03 03:06:16;;;;;;;3.10;2.80;;;;;;;-146.25;100.00;57403.91;4956336;29;20206;-89
2023/10/03 03:08:46;;;;;;;3.83;1.97;;;;;;;-146.25;100.00;57403.91;4956182;29;20559;-90
2023/10/03 03:11:14;;;;;;;2.07;1.97;;;;;;;-146.25;100.00;57403.91;4955499;29;20234;-89
2023/10/03 03:13:41;;;;;;;3.33;2.63;;;;;;;-146.25;100.00;57403.91;4956284;29;20664;-88
2023/10/03 03:16:11;;;;;;;4.57;1.97;;;;;;;-146.25;100.00;57403.91;4956319;28;20310;-89
2023/10/03 03:18:42;;;;;;;3.03;2.37;;;;;;;-146.25;100.00;57403.91;4956163;29;20210;-89
2023/10/03 03:21:13;;;;;;;5.10;2.77;;;;;;;-146.25;100.00;57403.91;4957871;29;20191;-89
2023/10/03 03:23:43;;;;;;;4.53;3.17;;;;;;;-146.25;100.00;57403.91;4969582;29;20202;-88
2023/10/03 03:26:20;;;;;;;2.50;2.30;;;;;;;-146.25;100.00;57403.91;4971431;29;20195;-90
2023/10/03 03:28:54;;;;;;;3.80;2.80;;;;;;;-146.25;100.00;57403.91;4957790;29;20226;-90
2023/10/03 03:31:22;;;;;;;7.57;1.87;;;;;;;-146.25;100.00;57403.91;4957538;29;20202;-89
2023/10/03 03:33:56;;;;;;;2.23;2.07;;;;;;;-146.25;100.00;57403.91;4956391;28;20289;-90
2023/10/03 03:36:29;;;;;;;2.03;1.93;;;;;;;-146.25;100.00;57403.91;4955834;29;20202;-89
2023/10/03 03:38:58;;;;;;;2.87;2.63;;;;;;;-146.25;100.00;57403.91;4955996;29;20199;-89
2023/10/03 03:41:34;;;;;;;3.43;3.07;;;;;;;-146.25;100.00;57403.91;4955912;29;20297;-89
2023/10/03 03:44:02;;;;;;;3.33;2.73;;;;;;;-146.25;100.00;57403.91;4955239;29;20229;-89
2023/10/03 03:46:31;;;;;;;3.33;3.07;;;;;;;-146.25;100.00;57403.91;4955605;29;20203;-89
2023/10/03 03:49:05;;;;;;;6.07;3.87;;;;;;;-146.25;100.00;57403.91;4955017;29;20262;-88
2023/10/03 03:51:40;;;;;;;7.37;3.40;;;;;;;-146.25;100.00;57403.91;4955597;29;20671;-89
2023/10/03 03:54:12;;;;;;;21.37;3.40;;;;;;;-146.25;100.00;57403.91;4956089;29;20559;-89
2023/10/03 03:56:40;;;;;;;5.57;3.20;;;;;;;-146.25;100.00;57403.91;4955116;29;20198;-88
2023/10/03 03:59:09;;;;;;;4.13;3.80;;;;;;;-146.25;100.00;57403.91;4955936;29;20225;-89
2023/10/03 04:01:39;;;;;;;4.13;3.17;;;;;;;-146.25;100.00;57403.91;4955569;29;20202;-90
2023/10/03 04:04:12;;;;;;;4.10;2.97;;;;;;;-146.25;100.00;57403.91;4955008;28;20321;-88
2023/10/03 04:06:42;;;;;;;7.83;3.30;;;;;;;-146.25;100.00;57403.91;4956160;29;20257;-90
2023/10/03 04:09:19;;;;;;;13.17;2.90;;;;;;;-146.25;100.00;57403.91;4956355;29;20250;-90
2023/10/03 04:11:52;;;;;;;5.23;2.83;;;;;;;-146.25;100.00;57403.91;4955518;29;20209;-88
2023/10/03 04:14:20;;;;;;;2.97;2.67;;;;;;;-146.25;100.00;57403.91;4956609;28;20250;-89
2023/10/03 04:17:00;;;;;;;4.73;2.70;;;;;;;-146.25;100.00;57403.91;4955473;29;20558;-89
2023/10/03 04:19:29;;;;;;;6.53;3.10;;;;;;;-146.25;100.00;57403.91;4955418;29;20214;-90
2023/10/03 04:21:57;;;;;;;3.53;2.63;;;;;;;-146.25;100.00;57403.91;4957020;29;20202;-89
2023/10/03 04:24:26;;;;;;;3.70;2.63;;;;;;;-146.25;100.00;57403.91;4968089;29;20268;-87
2023/10/03 04:26:57;;;;;;;8.23;3.80;;;;;;;-146.25;100.00;57403.91;4974271;28;20203;-88
2023/10/03 04:29:24;;;;;;;4.47;3.13;;;;;;;-146.25;100.00;57403.91;4969096;29;20316;-88
2023/10/03 04:31:53;;;;;;;3.63;2.60;;;;;;;-146.25;100.00;57403.91;4965707;29;20273;-90
2023/10/03 04:34:21;;;;;;;5.63;3.37;;;;;;;-146.25;100.00;57403.91;4967855;29;20203;-89
2023/10/03 04:36:54;;;;;;;5.33;2.30;;;;;;;-146.25;100.00;57403.91;4969598;28;20206;-88
2023/10/03 04:39:22;;;;;;;3.10;2.90;;;;;;;-146.25;100.00;57403.91;4973656;29;20257;-88
2023/10/03 04:41:50;;;;;;;2.77;2.40;;;;;;;-146.25;100.00;57403.91;4957503;29;20692;-89
2023/10/03 04:44:22;;;;;;;3.73;3.43;;;;;;;-146.25;100.00;57403.91;4954474;29;20214;-89
2023/10/03 04:47:11;;;;;;;7.77;3.30;;;;;;;-146.25;100.00;57403.91;4958526;29;20198;-90
2023/10/03 04:49:42;;;;;;;3.67;2.77;;;;;;;-146.25;100.00;57403.91;4958473;29;20234;-90
2023/10/03 04:52:18;;;;;;;7.87;3.20;;;;;;;-146.25;100.00;57403.91;4958785;29;20218;-89
2023/10/03 04:54:53;;;;;;;21.90;4.70;;;;;;;-146.25;100.00;57403.91;4960188;29;20610;-89
2023/10/03 04:57:27;;;;;;;5.93;3.60;;;;;;;-146.25;100.00;57403.91;4958358;29;20209;-89
2023/10/03 04:59:56;;;;;;;5.53;3.37;;;;;;;-146.25;100.00;57403.91;4958993;29;20207;-89
2023/10/03 05:02:25;;;;;;;10.00;3.80;;;;;;;-146.25;100.00;57403.91;4959085;29;20203;-91
2023/10/03 05:04:59;;;;;;;10.70;4.40;;;;;;;-146.25;100.00;57403.91;4960011;28;20222;-88
2023/10/03 05:07:44;;;;;;;6.33;4.47;;;;;;;-146.25;100.00;57403.91;4959406;29;20193;-89
2023/10/03 05:10:15;;;;;;;13.10;4.40;;;;;;;-146.25;100.00;57403.91;4938778;29;20231;-87
2023/10/03 05:12:45;;;;;;;6.80;4.70;;;;;;;-146.25;100.00;57403.91;4951402;29;20292;-87
2023/10/03 05:15:18;;;;;;;4.50;4.00;;;;;;;-146.25;100.00;57403.91;4943849;28;20216;-89
2023/10/03 05:17:51;;;;;;;4.47;3.43;;;;;;;-146.25;100.00;57403.91;4945730;29;20206;-89
2023/10/03 05:20:37;;;;;;;5.68;3.97;;;;;;;-146.25;100.00;57403.91;4952132;29;20284;-89
2023/10/03 05:23:15;;;;;;;8.75;4.80;;;;;;;-146.25;100.00;57403.91;4945660;29;20200;-87
2023/10/03 05:25:49;;;;;;;17.38;6.88;;;;;;;-146.25;100.00;57403.91;4941902;29;20616;-88
2023/10/03 05:28:37;;;;;;;6.05;4.30;;;;;;;-146.25;100.00;57403.91;4939599;29;20201;-88
2023/10/03 05:31:12;;;;;;;5.10;4.43;;;;;;;-146.25;100.00;57403.91;4939182;29;20209;-89
2023/10/03 05:33:41;;;;;;;11.00;5.97;;;;;;;-146.25;100.00;57403.91;4951574;29;20740;-90
2023/10/03 05:36:18;;;;;;;9.77;6.30;;;;;;;-146.25;100.00;57403.91;4952381;29;20256;-88
2023/10/03 05:39:13;;;;;;;;;;;;;;;;;;;;;
2023/10/03 05:41:45;;;;;;;21.55;13.07;;;;;;;-146.25;100.00;57403.91;4939179;29;20225;-90
2023/10/03 05:44:21;;;;;;;8.40;6.53;;;;;;;-146.25;100.00;57403.91;4938917;29;20232;-89
2023/10/03 05:46:55;;;;;;;6.40;4.75;;;;;;;-146.25;100.00;57403.91;4938745;29;20655;-89
2023/10/03 05:49:29;;;;;;;11.93;7.72;;;;;;;-146.25;100.00;57403.91;4937942;29;20657;-90
2023/10/03 05:51:57;;;;;;;10.30;6.70;;;;;;;-146.25;100.00;57403.91;4945637;29;20211;-90
2023/10/03 05:54:27;;;;;;;8.65;4.78;;;;;;;-146.25;100.00;57403.91;4951377;29;20221;-89
2023/10/03 05:56:58;;;;;;;9.07;4.60;;;;;;;-146.25;100.00;57403.91;4940233;29;20377;-89
2023/10/03 05:59:27;;;;;;;6.95;4.95;;;;;;;-146.25;100.00;57403.91;4937879;29;20287;-88
2023/10/03 06:01:59;;;;;;;8.63;4.78;;;;;;;-146.25;100.00;57403.91;4938316;29;20219;-90
2023/10/03 06:04:40;;;;;;;;;;;;;;;;;;;;;
2023/10/03 06:07:09;;;;;;;11.32;4.85;;;;;;;-146.25;100.00;57403.91;4919113;29;20658;-89
2023/10/03 06:09:41;;;;;;;9.77;5.03;;;;;;;-146.25;100.00;57403.91;4930193;29;20239;-89
2023/10/03 06:12:12;;;;;;;9.13;4.68;;;;;;;-146.25;100.00;57403.91;4938644;29;20207;-90
2023/10/03 06:14:43;;;;;;;5.78;5.20;;;;;;;-146.25;100.00;57403.91;4931533;29;20243;-89
2023/10/03 06:17:17;;;;;;;9.88;5.05;;;;;;;-146.25;100.00;57403.91;4936777;29;20271;-90
2023/10/03 06:19:47;;;;;;;8.07;5.28;;;;;;;-146.25;100.00;57403.91;4925756;29;20262;-88
2023/10/03 06:22:15;;;;;;;8.73;5.28;;;;;;;-146.25;100.00;57403.91;4919289;29;20258;-89
2023/10/03 06:24:45;;;;;;;10.45;5.10;;;;;;;-146.25;100.00;57403.91;4918901;29;20219;-90
2023/10/03 06:27:13;;;;;;;5.82;5.28;;;;;;;-146.25;100.00;57403.91;4919095;29;20204;-89
2023/10/03 06:29:43;;;;;;;5.38;4.82;;;;;;;-146.25;100.00;57403.91;4919222;29;20232;-89
2023/10/03 06:32:11;;;;;;;7.85;5.60;;;;;;;-146.25;100.00;57403.91;4924131;29;20252;-90
2023/10/03 06:34:42;;;;;;;5.43;4.82;;;;;;;-146.25;100.00;57403.91;4918381;29;20228;-90
2023/10/03 06:37:25;;;;;;;12.10;5.85;;;;;;;-146.25;100.00;57403.91;4918034;29;20645;-90
2023/10/03 06:39:54;;;;;;;6.90;4.78;;;;;;;-146.25;100.00;57403.91;4918085;29;20208;-90
2023/10/03 06:42:22;;;;;;;13.00;5.10;;;;;;;-146.25;100.00;57403.91;4917837;29;20643;-89
2023/10/03 06:44:52;;;;;;;7.53;5.00;;;;;;;-146.25;100.00;57403.91;4918490;29;20224;-88
2023/10/03 06:47:23;;;;;;;7.82;5.40;;;;;;;-146.25;100.00;57403.91;4917505;29;20200;-89
2023/10/03 06:50:00;;;;;;;5.95;5.40;;;;;;;-146.25;100.00;57403.91;4917967;29;20236;-89
2023/10/03 06:52:28;;;;;;;7.47;5.82;;;;;;;-146.25;100.00;57403.91;4918276;29;20204;-88
2023/10/03 06:54:58;;;;;;;10.48;5.68;;;;;;;-146.25;100.00;57403.91;4917336;29;20203;-89
2023/10/03 06:57:26;;;;;;;12.82;5.90;;;;;;;-146.25;100.00;57403.91;4917354;29;20204;-87
2023/10/03 06:59:54;;;;;;;6.65;5.90;;;;;;;-146.25;100.00;57403.91;4918177;29;20200;-89
2023/10/03 07:02:23;;;;;;;6.97;5.68;;;;;;;-146.25;100.00;57403.91;4918193;29;20410;-88
2023/10/03 07:04:51;;;;;;;6.60;5.30;;;;;;;-146.25;100.00;57403.91;4935122;29;20231;-89
2023/10/03 07:07:34;;;;;;;14.43;6.60;;;;;;;-146.25;100.00;57403.91;4940765;29;20653;-88
2023/10/03 07:10:05;;;;;;;6.07;5.50;;;;;;;-146.25;100.00;57403.91;4951815;29;20242;-86
2023/10/03 07:12:33;;;;;;;8.60;5.88;;;;;;;-146.25;100.00;57403.91;4949230;29;20211;-89
2023/10/03 07:15:01;;;;;;;8.35;6.40;;;;;;;-146.25;100.00;57403.91;4939986;29;20230;-89
2023/10/03 07:17:30;;;;;;;11.68;5.30;;;;;;;-146.25;100.00;57403.91;4940843;29;20207;-89
2023/10/03 07:19:58;;;;;;;10.35;6.38;;;;;;;-146.25;100.00;57403.91;4938913;29;20240;-91
2023/10/03 07:22:37;;;;;;;9.73;5.40;;;;;;;-146.25;100.00;57403.91;4939230;29;20207;-90
2023/10/03 07:25:09;;;;;;;11.75;5.90;;;;;;;-146.25;100.00;57403.91;4945778;29;20218;-89
2023/10/03 07:27:41;;;;;;;5.88;5.30;;;;;;;-146.25;100.00;57403.91;4936505;29;20208;-90
2023/10/03 07:30:09;;;;;;;11.10;5.28;;;;;;;-146.25;100.00;57403.91;4936774;29;20242;-90
2023/10/03 07:32:37;;;;;;;8.95;5.50;;;;;;;-146.25;100.00;57403.91;4939194;29;20200;-89
2023/10/03 07:35:10;;;;;;;10.15;6.00;;;;;;;-146.25;100.00;57403.91;4940060;29;20210;-89
2023/10/03 07:37:40;;;;;;;10.38;6.75;;;;;;;-146.25;100.00;57403.91;4935926;29;20236;-88
2023/10/03 07:40:12;;;;;;;9.18;6.18;;;;;;;-146.25;100.00;57403.91;4936363;29;20696;-90
2023/10/03 07:42:40;;;;;;;7.40;4.90;;;;;;;-146.25;100.00;57403.91;4938867;29;20591;-89
2023/10/03 07:45:10;;;;;;;9.52;6.07;;;;;;;-146.25;100.00;57403.91;4937491;29;20211;-88
2023/10/03 07:47:39;;;;;;;13.02;6.53;;;;;;;-146.25;100.00;57403.91;4938628;29;20294;-88
2023/10/03 07:50:10;;;;;;;7.20;6.22;;;;;;;-146.25;100.00;57403.91;4939750;29;20227;-90
2023/10/03 07:52:39;;;;;;;7.97;5.88;;;;;;;-146.25;100.00;57403.91;4935711;29;20206;-90
2023/10/03 07:55:14;;;;;;;9.80;5.25;;;;;;;-146.25;100.00;57403.91;4935571;29;20199;-88
2023/10/03 07:57:46;;;;;;;10.27;6.85;;;;;;;-146.25;100.00;57403.91;4935378;29;20222;-88
2023/10/03 08:00:20;;;;;;;11.90;6.07;;;;;;;-146.25;100.00;57403.91;4934707;29;20554;-90
2023/10/03 08:02:50;;;;;;;11.63;6.65;;;;;;;-146.25;100.00;57403.91;4935441;29;20286;-89
2023/10/03 08:05:27;;;;;;;8.70;5.78;;;;;;;-146.25;100.00;57403.91;4938022;29;20235;-89
2023/10/03 08:07:56;;;;;;;7.57;5.38;;;;;;;-146.25;100.00;57403.91;4937018;29;20214;-89
2023/10/03 08:10:30;;;;;;;8.40;6.15;;;;;;;-146.25;100.00;57403.91;4937752;29;20227;-89
2023/10/03 08:13:18;;;;;;;7.25;5.82;;;;;;;-146.25;100.00;57403.91;4954230;28;20219;-89
2023/10/03 08:15:47;;;;;;;7.10;5.47;;;;;;;-146.25;100.00;57403.91;4944160;29;20219;-88
2023/10/03 08:18:21;;;;;;;8.15;5.80;;;;;;;-146.25;100.00;57403.91;4934359;29;20634;-90
2023/10/03 08:20:53;;;;;;;10.02;6.15;;;;;;;-146.25;100.00;57403.91;4935145;29;20192;-90
2023/10/03 08:23:21;;;;;;;8.27;6.47;;;;;;;-146.25;100.00;57403.91;4935347;29;20254;-89
2023/10/03 08:26:01;;;;;;;6.65;5.90;;;;;;;-146.25;100.00;57403.91;4935530;29;20673;-91
2023/10/03 08:28:36;;;;;;;9.98;5.93;;;;;;;-146.25;100.00;57403.91;4935315;29;20282;-90
2023/10/03 08:31:23;;;;;;;10.80;6.82;;;;;;;-146.25;100.00;57403.91;4935673;29;20361;-88
2023/10/03 08:33:55;;;;;;;6.07;5.18;;;;;;;-146.25;100.00;57403.91;4936316;29;20207;-89
2023/10/03 08:36:37;;;;;;;13.00;5.60;;;;;;;-146.25;100.00;57403.91;4935736;29;20214;-89
2023/10/03 08:39:15;;;;;;;7.10;6.38;;;;;;;-146.25;100.00;57403.91;4936721;29;20227;-90
2023/10/03 08:42:12;;;;;;;9.25;6.70;;;;;;;-146.25;100.00;57403.91;4934937;29;20618;-89
2023/10/03 08:44:54;;;;;;;6.93;4.72;;;;;;;-146.25;100.00;57403.91;4913851;29;20227;-88
2023/10/03 08:47:33;;;;;;;10.93;5.45;;;;;;;-146.25;100.00;57403.91;4915431;29;20211;-89
2023/10/03 08:50:10;;;;;;;7.88;5.35;;;;;;;-146.25;100.00;57403.91;4935384;29;20235;-89
2023/10/03 08:52:46;;;;;;;8.30;6.13;;;;;;;-146.25;100.00;57403.91;4935067;29;20215;-90
2023/10/03 08:55:19;;;;;;;8.27;5.97;;;;;;;-146.25;100.00;57403.91;4935826;29;20203;-88
2023/10/03 08:57:49;;;;;;;11.43;5.13;;;;;;;-146.25;100.00;57403.91;4934769;29;20287;-90
2023/10/03 09:00:25;;;;;;;5.13;4.70;;;;;;;-146.25;100.00;57403.91;4935232;29;20223;-88
2023/10/03 09:03:09;;;;;;;9.60;4.95;;;;;;;-146.25;100.00;57403.91;4935438;29;20282;-89
2023/10/03 09:05:39;;;;;;;7.03;5.57;;;;;;;-146.25;100.00;57403.91;4935677;29;20302;-88
2023/10/03 09:08:09;;;;;;;9.23;4.82;;;;;;;-146.25;100.00;57403.91;4935036;29;20205;-88
2023/10/03 09:10:51;;;;;;;11.00;4.47;;;;;;;-146.25;100.00;57403.91;4936140;29;20318;-87
2023/10/03 09:13:29;;;;;;;13.65;5.88;;;;;;;-146.25;100.00;57403.91;4936571;29;20232;-87
2023/10/03 09:16:08;;;;;;;12.18;3.97;;;;;;;-146.25;100.00;57403.91;4946366;29;20227;-89
2023/10/03 09:18:41;;;;;;;6.50;4.47;;;;;;;-146.25;100.00;57403.91;4948702;29;20199;-88
2023/10/03 09:21:14;;;;;;;6.90;4.95;;;;;;;-146.25;100.00;57403.91;4947725;29;20207;-87
2023/10/03 09:24:09;;;;;;;8.95;5.18;;;;;;;-146.25;100.00;57403.91;4954589;29;20228;-88
2023/10/03 09:26:46;;;;;;;7.53;5.13;;;;;;;-146.25;100.00;57403.91;4956671;29;20200;-88
2023/10/03 09:29:29;;;;;;;12.50;4.53;;;;;;;-146.25;100.00;57403.91;4957132;29;20188;-88
2023/10/03 09:32:07;;;;;;;6.20;4.18;;;;;;;-146.25;100.00;57403.91;4955591;29;20208;-90
2023/10/03 09:34:40;;;;;;;9.82;4.45;;;;;;;-146.25;100.00;57403.91;4954488;29;20191;-89
2023/10/03 09:37:08;;;;;;;7.03;4.78;;;;;;;-146.25;100.00;57403.91;4958374;29;20203;-89
2023/10/03 09:39:49;;;;;;;8.10;4.18;;;;;;;-146.25;100.00;57403.91;4961680;29;20203;-86
2023/10/03 09:42:18;;;;;;;6.63;4.63;;;;;;;-146.25;100.00;57403.91;4953332;29;20203;-88
2023/10/03 09:44:51;;;;;;;10.43;5.55;;;;;;;-146.25;100.00;57403.91;4918331;29;20458;-89
2023/10/03 09:47:29;;;;;;;7.20;5.03;;;;;;;-146.25;100.00;57403.91;4932650;29;20254;-89
2023/10/03 09:52:52;;;;;;;5.65;3.60;;;;;;;-146.25;100.00;57403.91;4911793;29;20247;-85
2023/10/03 09:55:26;;;;;;;6.00;3.75;;;;;;;-146.25;100.00;57403.91;4935099;29;20223;-86
2023/10/03 09:57:59;;;;;;;9.82;4.40;;;;;;;-146.25;100.00;57403.91;4938875;29;20229;-87
2023/10/03 10:03:26;;;;;;;8.35;3.80;;;;;;;-146.25;100.00;57403.91;4931035;29;20380;-86
2023/10/03 10:06:12;;;;;;;8.02;4.63;;;;;;;-146.25;100.00;57403.91;4933635;29;20471;-87
2023/10/03 10:08:47;;;;;;;9.35;4.53;;;;;;;-146.25;100.00;57403.91;4935271;29;20231;-86
2023/10/03 10:11:22;;;;;;;6.18;3.97;;;;;;;-146.25;100.00;57403.91;4939945;29;20248;-85
2023/10/03 10:14:09;;;;;;;15.10;4.22;;;;;;;-146.25;100.00;57403.91;4935216;29;20808;-86
2023/10/03 10:17:19;;;;;;;6.55;4.32;;;;;;;-146.25;100.00;57403.91;4943140;29;20250;-86
2023/10/03 10:20:12;;;;;;;5.82;4.30;;;;;;;-146.25;100.00;57403.91;4931111;29;20234;-86
2023/10/03 10:23:16;;;;;;;4.18;3.78;;;;;;;-146.25;100.00;57403.91;4955313;29;20231;-86
2023/10/03 10:25:58;;;;;;;5.00;4.47;;;;;;;-146.25;100.00;57403.91;4971396;29;20238;-85
2023/10/03 10:28:31;;;;;;;6.22;3.97;;;;;;;-146.25;100.00;57403.91;4959328;29;20282;-86
2023/10/03 10:31:30;;;;;;;3.80;3.50;;;;;;;-146.25;100.00;57403.91;4961058;29;20234;-87
2023/10/03 10:34:40;;;;;;;9.40;4.15;;;;;;;-146.25;100.00;57403.91;4953541;29;20250;-88
2023/10/03 10:37:14;;;;;;;5.90;4.60;;;;;;;-146.25;100.00;57403.91;4954398;29;20250;-87
2023/10/03 10:40:22;;;;;;;6.60;4.32;;;;;;;-146.25;100.00;57403.91;4953820;29;20231;-87
2023/10/03 10:43:08;;;;;;;7.95;5.90;;;;;;;-146.25;100.00;57403.91;4902155;29;20258;-86
2023/10/03 10:45:44;;;;;;;4.85;4.35;;;;;;;-146.25;100.00;57403.91;4937808;29;20227;-86
2023/10/03 10:48:12;;;;;;;3.72;3.42;;;;;;;-146.25;100.00;57403.91;4937363;29;20235;-86
2023/10/03 10:51:13;;;;;;;8.25;4.72;;;;;;;-146.25;100.00;57403.91;4936608;29;20249;-87
2023/10/03 10:53:43;;;;;;;5.43;3.90;;;;;;;-146.25;100.00;57403.91;4937063;29;20290;-87
2023/10/03 10:56:12;;;;;;;6.25;4.00;;;;;;;-146.25;100.00;57403.91;4937501;29;20740;-87
2023/10/03 10:59:04;;;;;;;6.07;4.00;;;;;;;-146.25;100.00;57403.91;4936993;29;20244;-86
2023/10/03 11:01:38;;;;;;;6.85;3.90;;;;;;;-146.25;100.00;57403.91;4937416;29;20231;-86
2023/10/03 11:04:07;;;;;;;10.90;3.80;;;;;;;-146.25;100.00;57403.91;4936944;29;20251;-86
2023/10/03 11:06:39;;;;;;;6.80;4.85;;;;;;;-146.25;100.00;57403.91;4935870;29;20228;-85
2023/10/03 11:09:12;;;;;;;8.85;4.78;;;;;;;-146.25;100.00;57403.91;4934516;29;20227;-86
2023/10/03 11:11:41;;;;;;;6.10;3.80;;;;;;;-146.25;100.00;57403.91;4933784;29;20238;-84
2023/10/03 11:14:13;;;;;;;5.93;4.28;;;;;;;-146.25;100.00;57403.91;4933161;29;20318;-85
2023/10/03 11:16:42;;;;;;;7.10;4.03;;;;;;;-146.25;100.00;57403.91;4933823;29;20729;-86
2023/10/03 11:19:13;;;;;;;5.18;3.85;;;;;;;-146.25;100.00;57403.91;4933111;29;20231;-87
2023/10/03 11:21:57;;;;;;;5.00;3.92;;;;;;;-146.25;100.00;57403.91;4933707;29;20254;-85
2023/10/03 11:24:32;;;;;;;6.32;4.55;;;;;;;-146.25;100.00;57403.91;4935616;29;20582;-86
2023/10/03 11:27:05;;;;;;;9.88;4.03;;;;;;;-146.25;100.00;57403.91;4942291;29;20229;-87
2023/10/03 11:29:37;;;;;;;6.65;4.38;;;;;;;-146.25;100.00;57403.91;4955333;29;20317;-85
2023/10/03 11:32:06;;;;;;;6.65;3.72;;;;;;;-146.25;100.00;57403.91;4952642;29;20230;-85
2023/10/03 11:34:40;;;;;;;7.28;4.70;;;;;;;-146.25;100.00;57403.91;4944818;29;20250;-85
2023/10/03 11:37:09;;;;;;;7.32;4.20;;;;;;;-146.25;100.00;57403.91;4938585;29;20235;-86
2023/10/03 11:39:39;;;;;;;8.80;4.40;;;;;;;-146.25;100.00;57403.91;4942258;29;20211;-85
2023/10/03 11:42:24;;;;;;;4.78;4.05;;;;;;;-146.25;100.00;57403.91;4941167;29;20605;-84
2023/10/03 11:45:02;;;;;;;7.65;4.68;;;;;;;-146.25;100.00;57403.91;4948809;29;20234;-84